Mendoza, Argentina
Current Conditions -  °F | °C
As of 7:00 AM on Friday 21 Nov 2014 (Local Time) from SAME Reporting Station
Clear Clear  
Wind Chill: 57°   Ceiling: Unl
Heat Index: 57°   Visibility: 6mi
Dew Point: 46°   Wind: 0mph
Humidity: 67%   Direction: NA
Pressure: 30.09"   Gusts: NA
Location:  32.89°S, 68.83°W
Report Text: SAME 211000Z 00000KT CAVOK 14/08 Q1019
Loading
Personal Weather Stations






























Interactive Weather Map New forecast layout! Learn more

10-Day Weather Forecast

Advertisements
Track Severe Weather on mobile